Newcomb, NM (87455)

4:39 AM MST on February 23, 2017 (GMT -0700)
Four Corners Regional | | Change Station

Elev 5505 ft 36.74 °N, 108.23 °W | Updated 46 minutes ago

Partly Cloudy
Partly Cloudy
39 °F
Feels Like 33 °F
N
8
Wind Variable Wind from NW

Today
High -- | Low -- °F
--% Chance of Precip.
Yesterday
High -- | Low -- °F
Precip. -- in
Pressure 29.54 in
Visibility 10.0 miles
Clouds Mostly Cloudy 8000 ft
Overcast 9000 ft
Windchill 33 °F
Dew Point 29 °F
Humidity 67%
Rainfall 0.00 in
Snow Depth Not available.
6:52 AM 6:04 PM
Waning Crescent, 11% visible
METAR KFMN 231053Z AUTO 31007KT 10SM BKN080 OVC090 04/M02 A2962 RMK AO2 PK WND 24028/0955 SLP002 T00391017
Pressure 29.54 in
Visibility 10.0 miles
Clouds Mostly Cloudy 8000 ft
Overcast 9000 ft
Windchill 33 °F
Dew Point 29 °F
Humidity 67%
Rainfall 0.00 in
Snow Depth Not available.
6:52 AM 6:04 PM
Waning Crescent, 11% visible
METAR KFMN 231053Z AUTO 31007KT 10SM BKN080 OVC090 04/M02 A2962 RMK AO2 PK WND 24028/0955 SLP002 T00391017

Get Your Daily Forecast Email!

Thanks for signing up!

Be on the lookout for a verification email in your inbox.

You'll start receiving the daily forecast at 8 AM.

×

10-Day Weather Forecast

Almanac

Astronomy

Feb. 23, 2017 Rise Set
Actual Time
Civil Twilight
Nautical Twilight
Astronomical Twilight
Moon
Length of Visible Light
Length of Day
Tomorrow will be .
, % of the Moon is Illuminated

Today's Extremes

State Highs State Lows

Community

WunderPhotos

Upload Photos

1,962,540 photos uploaded!

WunderBlog® & News

Nearby

Air Quality

  Air Quality AQ Index Pollutant
Not available.

Snow Depth

Station Depth Elevation

Earthquake Activity

City Distance Mag. Time & Date
Minimum magnitude displayed is 2.5.

Coastal Water Temperatures

Place Temperature

Stations

Nearby Weather Stations

Station Location Temp. Windchill Dew Point Humidity Wind Precip. Elev Updated Type
                   

Watches & Warnings

There are currently no watches in effect.